Airfield :
LOGIN :

Register | Disclaimer

   EN    FR    IT 

 










Legend :    VFR   Marginal VFR   IFR   Intensive IFR   Very Intensive IFR
Visi :
Ceiling :
>= 8 km
>= 3000ft
5 to 8 km
1000 to 3000 ft
1500m to 5 km
500 to 1000 ft
800 to 1500m
200 to 500 ft
< 800m
< 200 ft
Symbols :   Thunderstorms  Fog  Heavy snow  Heavy precipitations  Wind > 20 kt
SIGMETs :     Misc.  Thunderstorms  Icing  Turbulence  Mountain Waves  Volcanic Ashes






- Airport Elevation : 502 ft
- IATA code : ORK


EICK - Cork

CURRENT METAR :
  • 082100Z 27012KT 9999 FEW030 04/01 Q1003 NOSIG

EXPIRED METARs :
  • 082030Z 27013KT 9999 FEW020 04/00 Q1003 NOSIG
  • 082000Z 26012KT 9999 FEW020 03/00 Q1003 NOSIG
  • 081930Z 25010KT 9999 FEW018 03/M00 Q1003 NOSIG
  • 081900Z 25014KT 9999 FEW018 SCT035 04/00 Q1002 NOSIG
  • 081830Z 27014KT 9999 FEW018CB SCT028 04/00 Q1002 NOSIG

TAF TAF EICK
Valid from the 08 at 18:00 until the 09 at 18:00 UTC


081700Z 0818/0918 28015KT 9999 SCT020 SCT040
BECMG 0819/0821 25009KT
BECMG 0904/0906 VRB03KT 3000 -RA BKN005
TEMPO 0906/0912 1200 -RADZ BKN003
PROB40
TEMPO 0906/0912 0800 FG BKN001
BECMG 0907/0909 21010KT
BECMG 0909/0911 24010KT
BECMG 0911/0913 29015KT
BECMG 0912/0914 9999 NSW BKN020
TEMPO 0913/0916 29017G28KT



MET'MAP, your aeronautical weather chart ! - Copyright ORBIFLY December 2007 - Disclaimer

ORBIFLY MET'MAP TEAM :

Programming & Development : Alexandra Zaïnal
Concept & original design : Baudouin d'Aumeries
Assistance for programming : Marc-Olivier Méhu
Technical & hardware support : Manuel Goepfert

Contact : metmap@orbifly.com




SOURCES & CREDITS :

   NOAA